Time;durP1;ratioP1;P1;durP2;ratioP2;P2;SDS_P1;SDS_P2;PMS_P1;PMS_P2;Temp;Humidity;BMP_temperature;BMP_pressure;BME280_temperature;BME280_humidity;BME280_pressure;Samples;Min_cycle;Max_cycle;Signal;HPM_P1;HPM_P2
2023/10/13 00:04:26;;;;;;;11.80;7.30;;;16.10;99.90;;;14.72;100.00;100305.41;10190863;28;96778;-86
2023/10/13 00:09:36;;;;;;;14.20;7.35;;;16.00;99.90;;;14.66;100.00;100303.50;10223554;28;98914;-86
2023/10/13 00:14:41;;;;;;;;;;;16.00;99.90;;;14.64;100.00;100293.00;10213559;28;96747;-86
2023/10/13 00:19:51;;;;;;;11.73;7.18;;;15.90;99.90;;;14.57;100.00;100288.56;10173197;28;97649;-86
2023/10/13 00:24:58;;;;;;;13.00;7.32;;;15.90;99.90;;;14.52;100.00;100297.19;10182747;28;98390;-86
2023/10/13 00:35:47;;;;;;;14.07;7.13;;;15.80;99.90;;;14.45;100.00;100290.91;10154130;28;96690;-86
2023/10/13 00:40:55;;;;;;;12.80;8.38;;;15.70;99.90;;;14.43;100.00;100295.63;10196059;28;96693;-86
2023/10/13 00:56:40;;;;;;;13.52;8.15;;;15.70;99.90;;;14.35;100.00;100279.72;10211344;28;97192;-86
2023/10/13 01:01:44;;;;;;;11.98;7.88;;;15.60;99.90;;;14.32;100.00;100274.72;10217288;28;96589;-86
2023/10/13 01:06:48;;;;;;;14.05;7.82;;;15.60;99.90;;;14.32;100.00;100280.06;10192704;28;96799;-86
2023/10/13 01:11:52;;;;;;;13.85;8.00;;;15.60;99.90;;;14.30;100.00;100282.94;10175717;28;96705;-86
2023/10/13 01:16:58;;;;;;;10.13;6.80;;;15.60;99.90;;;14.29;100.00;100275.13;10208454;28;96857;-86
2023/10/13 01:22:04;;;;;;;12.35;7.53;;;15.60;99.90;;;14.27;100.00;100288.66;10210732;28;96786;-86
2023/10/13 01:27:17;;;;;;;14.95;7.93;;;15.60;99.90;;;14.27;100.00;100285.16;10184079;28;98126;-86
2023/10/13 01:32:23;;;;;;;11.75;7.82;;;15.60;99.90;;;14.28;100.00;100286.84;10218826;28;96896;-86
2023/10/13 01:37:27;;;;;;;13.45;6.97;;;15.60;99.90;;;14.29;100.00;100288.50;10203329;28;97676;-87
2023/10/13 01:42:31;;;;;;;11.93;6.57;;;15.60;99.90;;;14.29;100.00;100307.19;10218534;28;98292;-86
2023/10/13 01:47:39;;;;;;;14.45;6.60;;;15.70;99.90;;;14.25;100.00;100296.03;10221103;28;96925;-87
2023/10/13 01:52:43;;;;;;;9.88;5.55;;;15.60;99.90;;;14.22;100.00;100312.47;10165697;28;97257;-86
2023/10/13 01:57:48;;;;;;;10.50;5.75;;;15.60;99.90;;;14.20;100.00;100315.31;10184528;28;96805;-86
2023/10/13 02:02:52;;;;;;;9.45;5.38;;;15.60;99.90;;;14.19;100.00;100302.97;10179435;28;96656;-86
2023/10/13 02:08:01;;;;;;;11.48;6.07;;;15.50;99.90;;;14.18;100.00;100306.66;10199589;28;96721;-86
2023/10/13 02:13:05;;;;;;;11.07;5.68;;;15.50;99.90;;;14.15;100.00;100312.41;10204599;28;96813;-86
2023/10/13 02:18:09;;;;;;;9.35;5.68;;;15.50;99.90;;;14.17;100.00;100302.34;10185095;28;99393;-86
2023/10/13 02:23:12;;;;;;;10.60;5.93;;;15.50;99.90;;;14.18;100.00;100305.84;10226162;28;97282;-86
2023/10/13 02:28:21;;;;;;;7.97;5.07;;;15.50;99.90;;;14.18;100.00;100312.00;10205153;28;97277;-86
2023/10/13 02:33:31;;;;;;;11.95;5.63;;;15.50;99.90;;;14.18;100.00;100306.66;10205030;28;98325;-86
2023/10/13 02:43:44;;;;;;;9.82;4.95;;;15.50;99.90;;;14.18;100.00;100332.56;10185608;28;96945;-86
2023/10/13 02:48:57;;;;;;;10.32;6.28;;;15.40;99.90;;;14.19;100.00;100335.03;10195529;28;96655;-86
2023/10/13 02:54:03;;;;;;;11.93;6.82;;;15.40;99.90;;;14.24;100.00;100336.34;10186054;28;98166;-85
2023/10/13 02:59:06;;;;;;;10.48;5.90;;;15.50;99.90;;;14.27;100.00;100319.91;10195035;28;96802;-86
2023/10/13 03:04:12;;;;;;;13.20;6.93;;;15.60;99.90;;;14.33;100.00;100311.97;10201533;28;96616;-86
2023/10/13 03:09:18;;;;;;;13.60;6.93;;;15.70;99.90;;;14.39;100.00;100307.69;10166433;28;98547;-86
2023/10/13 03:14:24;;;;;;;13.52;7.22;;;15.70;99.90;;;14.48;100.00;100313.81;10182537;28;97284;-86
2023/10/13 03:19:32;;;;;;;10.02;6.68;;;15.80;99.90;;;14.55;100.00;100307.50;10179322;28;96700;-86
2023/10/13 03:24:44;;;;;;;14.38;7.85;;;15.90;99.90;;;14.59;100.00;100274.00;10217606;28;98473;-86
2023/10/13 03:29:54;;;;;;;10.98;6.88;;;15.90;99.90;;;14.64;100.00;100258.22;10183936;28;96702;-86
2023/10/13 03:45:25;;;;;;;11.25;6.80;;;16.10;99.90;;;14.72;100.00;100276.78;10190598;28;98424;-86
2023/10/13 03:50:30;;;;;;;13.00;7.57;;;16.10;99.90;;;14.70;100.00;100267.31;10212369;28;96681;-86
2023/10/13 03:55:35;;;;;;;11.27;7.18;;;16.00;99.90;;;14.69;100.00;100268.31;10211544;28;96906;-86
2023/10/13 04:00:42;;;;;;;12.20;6.20;;;16.00;99.90;;;14.64;100.00;100257.41;10217811;28;97974;-86
2023/10/13 04:06:06;;;;;;;9.70;5.70;;;16.00;99.90;;;14.61;100.00;100255.91;10204252;28;96513;-86
2023/10/13 04:16:37;;;;;;;10.77;5.82;;;15.90;99.90;;;14.54;100.00;100248.88;10171272;28;97708;-86
2023/10/13 04:21:57;;;;;;;12.35;6.57;;;15.90;99.90;;;14.52;100.00;100254.41;10213154;28;97014;-86
2023/10/13 04:32:28;;;;;;;9.70;5.85;;;15.80;99.90;;;14.50;100.00;100248.41;10190135;28;96723;-86
2023/10/13 04:37:50;;;;;;;10.63;6.82;;;15.90;99.90;;;14.50;100.00;100250.25;10223890;28;96726;-85
2023/10/13 04:42:56;;;;;;;18.50;8.70;;;15.90;99.90;;;14.47;100.00;100256.00;10207819;28;97040;-85
2023/10/13 04:48:17;;;;;;;18.73;10.43;;;15.80;99.90;;;14.51;100.00;100267.94;10183068;28;96633;-89
2023/10/13 04:53:33;;;;;;;13.18;9.75;;;15.80;99.90;;;14.53;100.00;100263.25;10223097;28;96661;-84
2023/10/13 05:04:22;;;;;;;13.32;8.38;;;15.90;99.90;;;14.55;100.00;100275.41;10195009;28;96795;-85
2023/10/13 06:30:05;;;;;;;9.93;6.25;;;16.50;99.90;;;15.22;100.00;100398.03;10224254;28;96587;-87
2023/10/13 06:35:18;;;;;;;9.10;5.07;;;16.50;99.90;;;15.24;100.00;100403.22;10195568;28;98536;-87
2023/10/13 06:45:30;;;;;;;12.93;9.73;;;16.60;99.90;;;15.30;100.00;100417.69;10225990;28;96581;-87
2023/10/13 06:50:39;;;;;;;12.40;6.35;;;16.60;99.90;;;15.34;100.00;100413.56;10218748;28;97254;-88
2023/10/13 06:55:46;;;;;;;9.35;5.20;;;16.60;99.90;;;15.41;100.00;100423.34;10184243;28;97514;-87
2023/10/13 07:00:55;;;;;;;9.95;5.47;;;16.80;99.90;;;15.47;100.00;100427.06;10210405;28;98647;-87
2023/10/13 07:05:59;;;;;;;10.65;5.97;;;16.80;99.90;;;15.55;100.00;100421.59;10234360;28;96836;-87
2023/10/13 07:11:05;;;;;;;10.15;5.45;;;16.90;99.90;;;15.63;100.00;100407.25;10193757;28;97478;-86
2023/10/13 07:16:12;;;;;;;8.57;5.38;;;17.00;99.90;;;15.72;100.00;100404.22;10204686;28;97700;-87
2023/10/13 07:21:33;;;;;;;9.98;6.05;;;17.10;99.90;;;15.83;100.00;100407.34;10211935;28;96625;-87
2023/10/13 07:26:45;;;;;;;10.07;5.55;;;17.20;99.90;;;15.91;100.00;100404.53;10203389;28;96634;-87
2023/10/13 07:31:50;;;;;;;7.75;5.07;;;17.30;99.90;;;16.02;100.00;100406.66;10212729;28;97554;-87
2023/10/13 07:36:59;;;;;;;8.30;5.25;;;17.40;99.90;;;16.16;100.00;100416.41;10168330;28;98471;-87
2023/10/13 07:42:15;;;;;;;11.75;6.20;;;17.60;99.90;;;16.27;100.00;100420.41;10211898;28;98674;-87
2023/10/13 07:47:20;;;;;;;11.05;6.03;;;17.70;99.90;;;16.35;100.00;100422.91;10185883;28;98323;-87
2023/10/13 07:52:26;;;;;;;15.20;7.18;;;17.70;99.90;;;16.39;100.00;100420.66;10229856;28;96764;-87
2023/10/13 07:57:32;;;;;;;13.02;7.15;;;17.80;99.90;;;16.44;100.00;100431.63;10194837;28;98142;-87
2023/10/13 08:02:49;;;;;;;20.17;8.95;;;17.90;99.90;;;16.47;100.00;100420.47;10176568;28;96842;-87
2023/10/13 08:07:53;;;;;;;15.77;9.48;;;17.90;99.90;;;16.50;100.00;100420.06;10194040;28;99202;-87
2023/10/13 08:12:58;;;;;;;21.27;11.38;;;18.00;99.90;;;16.54;100.00;100419.44;10184386;28;96798;-88
2023/10/13 08:18:07;;;;;;;34.95;17.27;;;18.00;99.90;;;16.53;100.00;100423.16;10204916;28;97415;-87
2023/10/13 08:23:14;;;;;;;32.80;18.23;;;18.00;99.90;;;16.56;100.00;100425.47;10181917;28;98548;-88
2023/10/13 08:34:06;;;;;;;23.98;12.30;;;18.10;99.90;;;16.70;100.00;100430.88;10171467;28;97437;-87
2023/10/13 08:39:58;;;;;;;21.08;11.55;;;18.10;99.90;;;16.77;100.00;100437.09;10206672;28;98562;-87
2023/10/13 08:44:51;;;;;;;22.27;14.07;;;18.20;99.90;;;16.82;100.00;100432.78;10191861;28;98541;-88
2023/10/13 08:50:10;;;;;;;24.25;14.00;;;18.20;99.90;;;16.87;100.00;100434.88;10191278;28;97790;-88
2023/10/13 09:00:55;;;;;;;26.02;15.13;;;18.40;99.90;;;17.06;100.00;100435.94;10167015;28;97770;-88
2023/10/13 09:06:02;;;;;;;28.13;16.45;;;18.50;99.90;;;17.13;100.00;100416.09;10213040;28;96607;-88
2023/10/13 09:11:12;;;;;;;19.40;13.35;;;18.60;99.90;;;17.29;100.00;100430.16;10182330;28;98256;-88
2023/10/13 09:16:51;;;;;;;17.77;11.40;;;18.70;99.90;;;17.51;100.00;100430.78;10228911;28;96546;-88
2023/10/13 09:21:47;;;;;;;21.50;12.47;;;18.90;99.90;;;17.71;100.00;100434.28;10206896;28;96711;-88
2023/10/13 09:26:55;;;;;;;19.52;13.13;;;19.10;99.90;;;17.82;100.00;100436.38;10171279;28;97073;-88
2023/10/13 09:32:11;;;;;;;23.45;13.07;;;19.20;99.90;;;17.92;100.00;100420.63;10171426;28;98680;-88
2023/10/13 09:37:20;;;;;;;19.55;12.02;;;19.30;99.90;;;18.01;100.00;100415.84;10174620;28;98346;-88
2023/10/13 09:42:26;;;;;;;20.67;11.63;;;19.40;99.90;;;18.16;100.00;100413.72;10190872;28;96793;-88
2023/10/13 09:47:36;;;;;;;18.80;11.52;;;19.50;99.90;;;18.35;98.15;100413.84;10188371;28;96599;-88
2023/10/13 09:52:45;;;;;;;22.02;11.80;;;19.70;99.90;;;18.65;99.61;100404.22;10191237;28;97441;-88
2023/10/13 09:58:04;;;;;;;18.67;11.85;;;19.90;99.90;;;18.90;95.96;100403.47;10187582;28;96565;-88
2023/10/13 10:08:33;;;;;;;18.42;10.63;;;20.50;99.90;;;19.46;92.95;100387.25;10222309;28;96709;-88
2023/10/13 10:14:07;;;;;;;21.98;12.98;;;20.80;99.90;;;19.68;91.77;100386.91;10224681;28;97035;-88
2023/10/13 10:19:11;;;;;;;22.05;11.27;;;21.00;99.90;;;19.96;90.38;100380.97;10227546;28;96565;-88
2023/10/13 10:24:29;;;;;;;13.57;8.02;;;21.30;99.90;;;20.44;89.23;100369.38;10194053;28;96716;-88
2023/10/13 10:29:34;;;;;;;16.63;8.30;;;21.80;99.90;;;20.98;86.31;100373.81;10217686;28;96546;-88
2023/10/13 10:34:37;;;;;;;14.27;7.78;;;22.30;99.90;;;21.37;83.00;100353.44;10194787;28;96636;-88
2023/10/13 10:39:45;;;;;;;16.30;10.23;;;22.80;99.90;;;21.59;78.99;100358.25;10206432;28;97392;-88
2023/10/13 10:44:55;;;;;;;15.13;9.45;;;23.20;99.90;;;21.71;77.92;100350.97;10226433;28;96462;-88
2023/10/13 10:50:07;;;;;;;26.92;14.13;;;23.30;99.70;;;21.84;76.66;100339.06;10223087;28;96584;-88
2023/10/13 10:55:14;;;;;;;26.80;14.73;;;23.40;99.20;;;22.09;75.31;100331.50;10221585;28;98519;-89
2023/10/13 11:00:25;;;;;;;20.00;10.50;;;23.70;99.00;;;22.42;74.53;100321.81;10225121;28;96522;-88
2023/10/13 11:05:34;;;;;;;15.27;8.57;;;24.10;98.40;;;22.73;71.97;100311.53;10183596;28;96906;-89
2023/10/13 11:10:46;;;;;;;;;;;24.50;97.70;;;23.04;69.38;100310.19;10189685;28;98327;-88
2023/10/13 11:15:50;;;;;;;10.60;6.32;;;25.00;96.50;;;23.32;69.39;100314.66;10204072;28;97146;-88
2023/10/13 11:20:56;;;;;;;10.93;5.78;;;25.40;95.90;;;23.59;68.11;100309.34;10208676;28;96653;-88
2023/10/13 11:26:00;;;;;;;9.95;5.95;;;25.60;94.70;;;23.64;66.48;100299.44;10201293;28;98742;-88
2023/10/13 11:31:10;;;;;;;11.43;6.70;;;25.50;94.00;;;23.58;66.58;100288.72;10194520;28;96682;-88
2023/10/13 11:36:21;;;;;;;13.80;8.13;;;25.30;93.70;;;23.48;66.73;100287.50;10203970;28;97724;-89
2023/10/13 11:41:33;;;;;;;12.68;7.65;;;25.10;93.70;;;23.44;67.62;100280.94;10185225;28;98113;-88
2023/10/13 11:51:49;;;;;;;18.35;7.97;;;25.00;94.00;;;23.42;67.56;100291.22;10212780;28;96672;-88
2023/10/13 11:56:58;;;;;;;14.27;7.28;;;24.90;93.80;;;23.39;68.32;100288.19;10180332;28;97910;-88
2023/10/13 12:07:26;;;;;;;10.85;5.75;;;24.80;93.90;;;23.28;68.23;100281.81;10193034;28;97662;-88
2023/10/13 12:12:33;;;;;;;15.63;6.40;;;24.70;93.90;;;23.28;68.11;100264.72;10183470;28;97623;-85
2023/10/13 12:17:39;;;;;;;10.25;5.35;;;24.70;93.70;;;23.32;68.32;100269.38;10171085;28;98211;-86
2023/10/13 12:22:51;;;;;;;10.93;5.35;;;24.80;93.80;;;23.36;67.55;100262.41;10158168;28;96862;-85
2023/10/13 12:27:56;;;;;;;12.18;5.80;;;24.80;93.70;;;23.40;68.12;100257.31;10114710;28;96882;-86
2023/10/13 12:33:08;;;;;;;9.98;4.82;;;24.80;93.60;;;23.40;68.22;100254.59;10150664;28;96743;-86
2023/10/13 12:54:27;;;;;;;9.18;4.30;;;25.10;93.90;;;23.74;67.79;100237.13;10147163;28;97810;-86
2023/10/13 12:59:31;;;;;;;8.60;4.50;;;25.10;93.70;;;23.77;66.78;100236.66;10187069;28;96760;-86
2023/10/13 13:04:38;;;;;;;8.02;4.50;;;25.10;93.40;;;23.69;65.97;100222.69;10182133;28;98796;-86
2023/10/13 13:09:41;;;;;;;7.30;3.95;;;25.10;93.30;;;23.66;68.23;100215.06;10191157;28;96713;-86
2023/10/13 13:14:48;;;;;;;14.40;4.85;;;25.00;93.40;;;23.64;67.65;100214.53;10213310;28;98885;-85
2023/10/13 13:19:51;;;;;;;8.82;4.15;;;25.00;93.40;;;23.67;69.32;100208.56;10172281;28;96736;-86
2023/10/13 13:24:55;;;;;;;7.55;3.70;;;25.00;93.60;;;23.77;69.03;100211.41;10220881;28;97614;-86
2023/10/13 13:30:00;;;;;;;11.05;4.63;;;25.10;93.70;;;23.89;66.58;100212.09;10221966;28;96902;-85
2023/10/13 13:35:05;;;;;;;7.72;3.80;;;25.20;93.20;;;24.04;66.62;100211.41;10220056;28;96710;-86
2023/10/13 13:40:16;;;;;;;7.47;3.10;;;25.40;93.10;;;24.20;64.97;100194.19;10174658;28;97152;-86
2023/10/13 13:45:29;;;;;;;9.65;3.75;;;25.50;92.70;;;24.28;62.35;100199.13;10176170;28;96844;-86
2023/10/13 13:50:38;;;;;;;5.68;3.38;;;25.60;92.00;;;24.38;62.61;100194.91;10185775;28;96630;-86
2023/10/13 13:55:42;;;;;;;8.98;3.75;;;25.70;91.60;;;24.44;61.41;100185.75;10185415;28;96675;-87
2023/10/13 14:00:48;;;;;;;7.13;3.55;;;25.70;91.30;;;24.47;59.85;100185.19;10198078;28;96649;-85
2023/10/13 14:05:52;;;;;;;7.82;4.07;;;25.80;90.90;;;24.44;59.57;100193.88;10194827;28;96746;-86
2023/10/13 14:11:21;;;;;;;8.80;3.65;;;25.70;90.60;;;24.42;59.60;100177.84;10190410;28;96667;-86
2023/10/13 14:16:25;;;;;;;9.45;3.25;;;25.70;90.30;;;24.39;59.62;100172.94;10147236;28;98574;-86
2023/10/13 14:21:29;;;;;;;7.65;2.83;;;25.60;90.20;;;24.38;59.48;100170.47;10137283;28;97911;-86
2023/10/13 14:26:33;;;;;;;5.97;2.60;;;25.60;90.00;;;24.35;59.18;100166.41;10159060;28;98587;-86
2023/10/13 14:31:37;;;;;;;7.30;4.22;;;25.60;90.00;;;24.34;58.81;100161.16;10163733;28;96672;-86
2023/10/13 14:36:48;;;;;;;5.72;2.75;;;25.60;89.50;;;24.30;58.56;100161.72;10135597;28;97005;-85
2023/10/13 14:41:52;;;;;;;8.57;3.08;;;25.60;89.10;;;24.27;58.20;100156.78;10168230;28;97534;-86
2023/10/13 14:46:55;;;;;;;4.95;3.00;;;25.50;88.50;;;24.25;58.73;100161.66;10151823;28;96803;-85
2023/10/13 14:51:59;;;;;;;5.40;2.88;;;25.50;88.60;;;24.18;58.61;100157.53;10160964;28;96528;-86
2023/10/13 14:57:03;;;;;;;8.40;3.03;;;25.40;88.50;;;24.05;59.45;100166.94;10154930;28;96720;-86
2023/10/13 15:02:07;;;;;;;7.95;3.38;;;25.40;88.70;;;23.93;60.01;100158.09;10188818;28;96533;-86
2023/10/13 15:07:11;;;;;;;8.23;4.00;;;25.30;89.20;;;23.72;61.91;100166.03;10171395;28;98643;-86
2023/10/13 15:12:14;;;;;;;8.20;3.72;;;25.00;90.00;;;23.52;62.26;100168.50;10177483;28;97625;-86
2023/10/13 15:17:24;;;;;;;8.00;3.63;;;24.80;90.30;;;23.32;63.82;100163.66;10173222;28;96458;-86
2023/10/13 15:22:29;;;;;;;6.18;3.03;;;24.50;90.60;;;23.07;64.37;100161.44;10212899;28;96744;-86
2023/10/13 15:27:40;;;;;;;5.85;2.95;;;24.20;90.90;;;22.83;63.04;100165.41;10163858;28;100149;-88
2023/10/13 15:32:44;;;;;;;4.05;2.08;;;24.00;90.80;;;22.58;63.73;100155.84;10208667;28;97245;-88
2023/10/13 15:37:51;;;;;;;5.28;2.30;;;23.80;90.90;;;22.32;62.98;100167.34;10214492;28;96597;-88
2023/10/13 15:42:59;;;;;;;5.57;2.20;;;23.50;90.80;;;22.06;62.51;100161.44;10209445;28;96825;-89
2023/10/13 15:48:04;;;;;;;3.65;1.45;;;23.30;90.70;;;21.86;62.48;100158.41;10221794;28;96613;-89
2023/10/13 15:53:21;;;;;;;3.50;1.70;;;23.10;90.60;;;21.64;62.63;100164.47;10214798;28;96531;-88
2023/10/13 15:58:25;;;;;;;5.50;2.00;;;22.90;90.50;;;21.43;62.75;100153.53;10198437;28;96699;-89
2023/10/13 16:03:30;;;;;;;4.25;1.60;;;22.70;90.40;;;21.22;62.99;100165.75;10178089;28;96681;-89
2023/10/13 16:08:34;;;;;;;3.28;1.70;;;22.50;90.40;;;21.00;63.20;100155.59;10188401;28;97593;-88
2023/10/13 16:13:38;;;;;;;5.97;1.77;;;22.30;90.50;;;20.88;64.06;100159.38;10192618;28;96620;-88
2023/10/13 16:18:44;;;;;;;9.40;2.17;;;22.10;90.60;;;20.72;65.01;100164.41;10232798;28;96700;-88
2023/10/13 16:23:48;;;;;;;5.30;2.28;;;22.00;90.80;;;20.51;66.24;100173.94;10193461;28;96995;-88
2023/10/13 16:28:53;;;;;;;4.03;2.35;;;21.70;91.00;;;20.25;67.06;100179.72;10213633;28;96840;-88
2023/10/13 16:34:02;;;;;;;6.68;2.58;;;21.50;91.40;;;19.96;68.82;100179.50;10197643;28;96547;-88
2023/10/13 16:39:08;;;;;;;6.15;2.60;;;21.20;91.70;;;19.65;69.66;100177.06;10198933;28;96645;-88
2023/10/13 16:44:12;;;;;;;7.20;2.90;;;20.90;92.00;;;19.36;71.24;100173.25;10198079;28;96619;-87
2023/10/13 16:49:16;;;;;;;7.43;2.83;;;20.60;92.40;;;19.08;72.29;100174.63;10216967;28;96479;-87
2023/10/13 16:54:21;;;;;;;6.82;3.08;;;20.30;92.70;;;18.82;73.42;100172.19;10202453;28;96741;-87
2023/10/13 16:59:26;;;;;;;9.18;3.90;;;20.00;93.10;;;18.57;74.31;100180.25;10194091;28;96685;-86
2023/10/13 17:04:30;;;;;;;11.00;4.88;;;19.80;93.40;;;18.35;75.54;100182.50;10227958;28;96836;-85
2023/10/13 17:09:34;;;;;;;14.73;5.30;;;19.50;93.70;;;18.10;77.08;100177.94;10195592;28;97540;-86
2023/10/13 17:14:40;;;;;;;9.35;4.30;;;19.30;94.00;;;17.87;78.28;100172.28;10242379;28;97382;-86
2023/10/13 17:19:49;;;;;;;10.70;3.30;;;19.10;94.40;;;17.66;79.37;100168.03;10206169;28;97854;-86
2023/10/13 17:24:53;;;;;;;7.53;3.20;;;18.90;94.80;;;17.47;79.60;100171.66;10200202;28;96724;-86
2023/10/13 17:29:58;;;;;;;13.40;4.70;;;18.70;95.10;;;17.30;80.81;100165.94;10202402;28;98994;-86
2023/10/13 17:35:03;;;;;;;16.50;6.40;;;18.50;95.30;;;17.15;82.26;100171.53;10201844;28;96718;-86
2023/10/13 17:54:46;;;;;;;6.88;3.03;;;18.00;96.20;;;16.68;84.03;100170.81;10091722;28;96901;-86
2023/10/13 17:59:50;;;;;;;7.57;3.38;;;17.90;96.30;;;16.55;84.84;100166.28;10218210;28;96809;-86
2023/10/13 18:04:53;;;;;;;7.22;3.00;;;17.80;96.50;;;16.41;85.01;100159.25;10194449;28;96744;-86
2023/10/13 18:09:57;;;;;;;6.70;3.50;;;17.70;96.80;;;16.33;86.01;100165.66;10230518;28;96674;-86
2023/10/13 18:15:01;;;;;;;8.00;2.95;;;17.60;96.90;;;16.27;86.18;100179.88;10211687;28;96538;-86
2023/10/13 18:20:10;;;;;;;6.70;3.33;;;17.50;97.00;;;16.27;87.09;100179.06;10196894;28;96552;-86
2023/10/13 18:25:14;;;;;;;8.30;3.10;;;17.50;97.30;;;16.21;86.80;100174.53;10159933;28;98206;-86
2023/10/13 18:30:21;;;;;;;6.93;3.22;;;17.50;97.30;;;16.17;87.88;100167.91;10206343;28;98114;-86
2023/10/13 18:35:26;;;;;;;13.85;4.68;;;17.40;97.50;;;16.10;87.79;100167.91;10176957;28;96624;-86
2023/10/13 18:40:35;;;;;;;9.35;4.35;;;17.40;97.60;;;16.05;88.19;100162.34;10216187;28;96869;-86
2023/10/13 18:45:40;;;;;;;7.55;4.13;;;17.40;97.90;;;15.95;89.22;100169.94;10206530;28;96760;-86
2023/10/13 18:50:44;;;;;;;7.20;4.00;;;17.20;98.00;;;15.86;89.34;100169.31;10176362;28;97885;-86
2023/10/13 18:55:48;;;;;;;11.73;4.30;;;17.10;98.20;;;15.75;89.79;100165.38;10209231;28;96763;-86
2023/10/13 19:00:51;;;;;;;10.27;4.93;;;17.00;98.30;;;15.70;90.43;100173.19;10178630;28;96582;-87
2023/10/13 19:05:56;;;;;;;11.20;5.85;;;17.00;98.60;;;15.65;90.52;100174.81;10193833;28;96883;-87
2023/10/13 19:11:08;;;;;;;13.63;6.10;;;16.90;98.70;;;15.58;90.77;100156.00;10201943;28;98463;-87
2023/10/13 19:16:12;;;;;;;10.65;5.70;;;16.90;98.80;;;15.47;91.42;100168.16;10191005;28;96580;-86
2023/10/13 19:21:18;;;;;;;9.48;5.00;;;16.70;98.90;;;15.39;91.99;100170.16;10204782;28;96475;-87
2023/10/13 19:26:29;;;;;;;9.73;4.80;;;16.70;99.10;;;15.29;92.26;100177.72;10223802;28;96915;-87
2023/10/13 19:31:34;;;;;;;10.32;4.38;;;16.60;99.30;;;15.18;92.70;100169.25;10221999;28;96874;-86
2023/10/13 19:36:38;;;;;;;11.07;4.80;;;16.50;99.40;;;15.07;93.05;100169.81;10200037;28;96681;-87
2023/10/13 19:41:43;;;;;;;6.10;4.20;;;16.40;99.60;;;14.99;93.59;100169.94;10198379;28;97906;-87
2023/10/13 19:46:47;;;;;;;7.13;4.05;;;16.30;99.80;;;14.90;94.25;100171.16;10168035;28;96635;-86
2023/10/13 19:51:57;;;;;;;7.13;4.05;;;16.20;99.90;;;14.80;94.63;100176.84;10172492;28;96624;-86
2023/10/13 19:57:03;;;;;;;10.98;3.88;;;16.10;99.90;;;14.75;95.36;100163.22;10186162;28;96602;-87
2023/10/13 20:02:09;;;;;;;9.02;4.78;;;16.10;99.90;;;14.69;95.91;100169.34;10189955;28;98045;-86
2023/10/13 20:07:12;;;;;;;9.68;5.10;;;16.00;99.90;;;14.62;97.26;100163.97;10214661;28;98914;-86
2023/10/13 20:12:16;;;;;;;12.02;5.22;;;15.90;99.90;;;14.59;97.95;100171.56;10200556;28;96700;-86
2023/10/13 20:17:20;;;;;;;8.13;5.32;;;15.90;99.90;;;14.59;98.98;100169.72;10199478;28;96514;-87
2023/10/13 20:22:23;;;;;;;7.82;4.57;;;15.90;99.90;;;14.59;100.00;100167.03;10223434;28;97386;-86
2023/10/13 20:27:27;;;;;;;6.65;4.30;;;15.90;99.90;;;14.63;100.00;100160.28;10236592;28;96735;-87
2023/10/13 20:32:31;;;;;;;9.27;4.88;;;15.90;99.90;;;14.63;99.95;100160.28;10230970;28;96723;-87
2023/10/13 20:37:42;;;;;;;10.05;4.82;;;15.90;99.90;;;14.65;99.89;100158.25;10193766;28;96606;-87
2023/10/13 20:42:50;;;;;;;10.60;4.75;;;16.00;99.90;;;14.59;100.00;100156.34;10210635;28;98464;-87
2023/10/13 20:47:54;;;;;;;9.77;4.65;;;15.90;99.90;;;14.50;100.00;100162.03;10177212;28;96566;-86
2023/10/13 20:53:02;;;;;;;8.93;5.57;;;15.80;99.90;;;14.47;100.00;100157.91;10169525;28;96476;-86
2023/10/13 20:58:05;;;;;;;8.60;4.45;;;15.70;99.90;;;14.40;100.00;100157.00;10224827;28;98866;-86
2023/10/13 21:03:09;;;;;;;10.48;4.53;;;15.70;99.90;;;14.34;100.00;100147.06;10207508;28;96938;-87
2023/10/13 21:08:14;;;;;;;9.85;5.03;;;15.60;99.90;;;14.33;100.00;100142.72;10227081;28;96746;-86
2023/10/13 21:13:19;;;;;;;9.15;5.30;;;15.60;99.90;;;14.31;100.00;100144.78;10196689;28;98616;-86
2023/10/13 21:18:22;;;;;;;8.07;4.68;;;15.60;99.90;;;14.27;100.00;100135.47;10185831;28;96718;-87
2023/10/13 21:23:27;;;;;;;12.60;4.82;;;15.60;99.90;;;14.21;100.00;100134.41;10185159;28;96596;-86
2023/10/13 21:28:32;;;;;;;7.28;4.43;;;15.50;99.90;;;14.18;100.00;100122.28;10195037;28;96629;-86
2023/10/13 21:33:40;;;;;;;9.27;4.63;;;15.50;99.90;;;14.15;100.00;100114.66;10187610;28;96482;-86
2023/10/13 21:38:48;;;;;;;11.43;5.45;;;15.40;99.90;;;14.07;100.00;100116.63;10188785;28;96982;-88
2023/10/13 21:43:58;;;;;;;9.82;4.53;;;15.40;99.90;;;14.02;100.00;100119.03;10226943;28;96574;-87
2023/10/13 21:49:05;;;;;;;12.20;5.00;;;15.30;99.90;;;13.99;100.00;100117.59;10175529;28;96659;-87
2023/10/13 21:54:09;;;;;;;11.00;4.65;;;15.30;99.90;;;13.92;100.00;100114.84;10218795;28;97052;-87
2023/10/13 21:59:13;;;;;;;10.10;5.20;;;15.20;99.90;;;13.88;100.00;100107.41;10211552;28;96672;-86
2023/10/13 22:04:21;;;;;;;11.27;4.80;;;15.10;99.90;;;13.83;100.00;100107.16;10193102;28;96771;-87
2023/10/13 22:09:26;;;;;;;11.48;5.55;;;15.10;99.90;;;13.75;100.00;100113.47;10218762;28;96790;-86
2023/10/13 22:14:30;;;;;;;10.48;5.32;;;15.10;99.90;;;13.75;100.00;100118.81;10168944;28;96720;-86
2023/10/13 22:19:33;;;;;;;14.90;5.72;;;15.00;99.90;;;13.71;100.00;100112.19;10182440;28;96605;-86
2023/10/13 22:24:37;;;;;;;12.50;5.80;;;15.00;99.90;;;13.69;100.00;100102.72;10203571;28;96686;-86
2023/10/13 22:29:42;;;;;;;15.65;6.28;;;14.90;99.90;;;13.66;100.00;100112.75;10210780;28;96624;-86
2023/10/13 22:34:46;;;;;;;11.38;5.20;;;14.90;99.90;;;13.62;100.00;100113.34;10195102;28;96520;-86
2023/10/13 22:39:50;;;;;;;13.23;5.55;;;14.90;99.90;;;13.56;100.00;100109.56;10207217;28;96605;-86
2023/10/13 22:44:54;;;;;;;13.57;7.20;;;14.80;99.90;;;13.53;100.00;100103.78;10210115;28;96948;-87
2023/10/13 22:49:57;;;;;;;11.13;5.65;;;14.80;99.90;;;13.50;100.00;100109.50;10153567;28;98525;-86
2023/10/13 22:55:19;;;;;;;11.60;5.80;;;14.70;99.90;;;13.47;100.00;100108.03;10184723;28;96619;-86
2023/10/13 23:05:53;;;;;;;14.18;6.78;;;14.80;99.90;;;13.43;100.00;100104.06;10171443;28;97213;-87
2023/10/13 23:11:00;;;;;;;13.38;5.63;;;14.70;99.90;;;13.39;100.00;100089.47;10198560;28;96779;-87
2023/10/13 23:16:04;;;;;;;13.00;6.18;;;14.70;99.90;;;13.36;100.00;100087.16;10169455;28;96742;-87
2023/10/13 23:21:10;;;;;;;11.82;5.43;;;14.70;99.90;;;13.32;100.00;100085.91;10204154;28;96764;-87
2023/10/13 23:26:15;;;;;;;15.87;7.17;;;14.70;99.90;;;13.23;100.00;100077.16;10194030;28;96557;-87
2023/10/13 23:31:24;;;;;;;11.57;6.27;;;14.60;99.90;;;13.16;100.00;100076.22;10199139;28;97854;-86
2023/10/13 23:36:29;;;;;;;14.13;6.30;;;14.50;99.90;;;13.09;100.00;100075.34;10185288;28;96641;-86
2023/10/13 23:41:36;;;;;;;16.17;7.37;;;14.40;99.90;;;13.01;100.00;100078.91;10167909;28;96764;-86
2023/10/13 23:46:44;;;;;;;12.83;6.03;;;14.30;99.90;;;12.95;100.00;100074.31;10207267;28;96647;-86
2023/10/13 23:51:49;;;;;;;14.23;6.00;;;14.30;99.90;;;12.89;100.00;100069.75;10184116;28;96865;-86
2023/10/13 23:56:54;;;;;;;14.93;6.27;;;14.20;99.90;;;12.85;100.00;100074.63;10159644;28;96553;-86
